Time;durP1;ratioP1;P1;durP2;ratioP2;P2;SDS_P1;SDS_P2;PMS_P1;PMS_P2;Temp;Humidity;BMP_temperature;BMP_pressure;BME280_temperature;BME280_humidity;BME280_pressure;Samples;Min_cycle;Max_cycle;Signal;HPM_P1;HPM_P2
2022/02/17 00:00:06;;;;;;;1.33;0.57;;;22.30;34.50;;;;;;5090665;28;20422;-67
2022/02/17 00:02:35;;;;;;;0.95;0.68;;;22.30;34.60;;;;;;5092219;28;20404;-77
2022/02/17 00:05:01;;;;;;;1.00;0.60;;;22.30;34.50;;;;;;5092274;28;20467;-73
2022/02/17 00:07:27;;;;;;;1.15;0.68;;;22.30;34.60;;;;;;5092394;28;20374;-76
2022/02/17 00:09:52;;;;;;;1.37;0.63;;;22.30;34.60;;;;;;5092199;28;20481;-77
2022/02/17 00:12:18;;;;;;;1.45;0.65;;;22.30;34.50;;;;;;5092072;28;20413;-77
2022/02/17 00:14:44;;;;;;;0.90;0.60;;;22.30;34.30;;;;;;5092408;28;20429;-77
2022/02/17 00:17:09;;;;;;;1.80;0.70;;;22.30;34.40;;;;;;5092299;28;20382;-76
2022/02/17 00:19:35;;;;;;;1.10;0.60;;;22.20;34.30;;;;;;5092056;28;20392;-77
2022/02/17 00:22:00;;;;;;;1.80;0.70;;;22.30;34.30;;;;;;5092146;28;20435;-72
2022/02/17 00:24:26;;;;;;;0.90;0.70;;;22.10;34.10;;;;;;5091524;28;20394;-77
2022/02/17 00:26:52;;;;;;;1.17;0.80;;;22.10;34.10;;;;;;5090922;28;20393;-77
2022/02/17 00:29:17;;;;;;;1.13;0.60;;;22.00;34.10;;;;;;5091858;28;20401;-78
2022/02/17 00:31:43;;;;;;;1.60;0.60;;;22.00;34.50;;;;;;5092027;28;20386;-77
2022/02/17 00:34:10;;;;;;;2.20;0.80;;;21.90;34.50;;;;;;5091697;28;20420;-75
2022/02/17 00:36:36;;;;;;;1.38;0.63;;;22.00;34.50;;;;;;5091618;28;20842;-76
2022/02/17 00:39:04;;;;;;;1.20;0.70;;;21.90;34.40;;;;;;5092436;28;20491;-76
2022/02/17 00:41:29;;;;;;;0.85;0.50;;;21.90;34.20;;;;;;5094836;28;20392;-75
2022/02/17 00:43:55;;;;;;;1.33;0.77;;;21.90;34.20;;;;;;5095809;28;20417;-77
2022/02/17 00:46:20;;;;;;;1.00;0.50;;;21.80;34.40;;;;;;5094508;28;20722;-76
2022/02/17 00:48:47;;;;;;;1.50;0.60;;;21.80;34.40;;;;;;5095868;28;20389;-76
2022/02/17 00:51:13;;;;;;;0.82;0.57;;;21.80;34.50;;;;;;5095801;28;20825;-76
2022/02/17 00:53:39;;;;;;;1.20;0.55;;;21.80;34.40;;;;;;5094443;28;20409;-75
2022/02/17 00:56:05;;;;;;;0.98;0.60;;;21.80;34.40;;;;;;5095611;28;20382;-76
2022/02/17 00:58:31;;;;;;;1.20;0.70;;;21.80;34.40;;;;;;5095497;28;20385;-77
2022/02/17 01:00:56;;;;;;;1.05;0.52;;;21.70;34.30;;;;;;5095833;28;20440;-76
2022/02/17 01:03:22;;;;;;;1.20;0.73;;;21.70;34.60;;;;;;5094270;28;20823;-76
2022/02/17 01:05:47;;;;;;;1.30;0.63;;;21.70;34.60;;;;;;5094354;28;20429;-77
2022/02/17 01:08:13;;;;;;;0.98;0.73;;;21.70;34.60;;;;;;5094162;28;20413;-76
2022/02/17 01:10:39;;;;;;;1.67;0.90;;;21.60;34.40;;;;;;5094054;28;20469;-76
2022/02/17 01:13:05;;;;;;;1.00;0.70;;;21.60;34.50;;;;;;5094152;28;20480;-77
2022/02/17 01:15:31;;;;;;;1.17;0.60;;;21.60;34.50;;;;;;5095474;28;20418;-77
2022/02/17 01:17:57;;;;;;;0.85;0.55;;;21.60;34.80;;;;;;5094334;28;20416;-77
2022/02/17 01:20:23;;;;;;;0.98;0.68;;;21.50;34.80;;;;;;5093512;28;20747;-76
2022/02/17 01:22:49;;;;;;;1.45;0.60;;;21.50;34.80;;;;;;5095400;28;20406;-77
2022/02/17 01:25:15;;;;;;;1.00;0.70;;;21.50;34.60;;;;;;5095671;28;20886;-77
2022/02/17 01:27:42;;;;;;;0.90;0.60;;;21.50;34.40;;;;;;5094127;28;20415;-75
2022/02/17 01:30:09;;;;;;;1.08;0.70;;;21.50;34.40;;;;;;5094150;28;20486;-74
2022/02/17 01:32:35;;;;;;;0.90;0.60;;;21.50;34.90;;;;;;5094882;28;20451;-76
2022/02/17 01:35:00;;;;;;;1.13;0.63;;;21.50;34.80;;;;;;5094901;28;21082;-74
2022/02/17 01:37:26;;;;;;;1.00;0.43;;;21.50;34.80;;;;;;5094918;28;20468;-76
2022/02/17 01:39:52;;;;;;;1.10;0.70;;;21.50;34.80;;;;;;5094875;28;20424;-76
2022/02/17 01:42:18;;;;;;;1.13;0.50;;;21.40;34.50;;;;;;5094327;28;20418;-76
2022/02/17 01:44:46;;;;;;;1.65;0.68;;;21.40;34.50;;;;;;5093614;28;20394;-76
2022/02/17 01:47:16;;;;;;;0.98;0.60;;;21.40;34.90;;;;;;5093633;28;20796;-76
2022/02/17 01:49:43;;;;;;;1.00;0.60;;;21.40;34.90;;;;;;5094560;28;20485;-76
2022/02/17 01:52:10;;;;;;;1.00;0.60;;;21.40;35.00;;;;;;5094458;28;20957;-76
2022/02/17 01:54:41;;;;;;;0.90;0.70;;;21.40;34.90;;;;;;5094296;28;20388;-76
2022/02/17 01:57:15;;;;;;;1.73;0.80;;;21.30;34.70;;;;;;5094603;28;20374;-76
2022/02/17 01:59:42;;;;;;;1.20;0.55;;;21.30;34.60;;;;;;5094885;28;20416;-77
2022/02/17 02:02:08;;;;;;;1.75;0.80;;;21.30;34.90;;;;;;5094475;28;20378;-77
2022/02/17 02:04:34;;;;;;;1.30;0.70;;;21.20;34.90;;;;;;5093968;28;20425;-77
2022/02/17 02:07:00;;;;;;;1.50;0.60;;;21.30;34.90;;;;;;5094607;28;20421;-76
2022/02/17 02:09:26;;;;;;;0.90;0.60;;;21.30;34.90;;;;;;5094398;28;20439;-77
2022/02/17 02:11:52;;;;;;;0.90;0.50;;;21.20;34.70;;;;;;5093408;28;20396;-77
2022/02/17 02:14:18;;;;;;;1.20;0.77;;;21.30;34.80;;;;;;5094727;28;20469;-76
2022/02/17 02:16:45;;;;;;;0.90;0.60;;;21.20;34.70;;;;;;5094340;28;20907;-76
2022/02/17 02:19:11;;;;;;;1.00;0.57;;;21.20;35.00;;;;;;5094134;28;20390;-76
2022/02/17 02:21:37;;;;;;;0.98;0.60;;;21.30;34.90;;;;;;5094061;28;20417;-76
2022/02/17 02:24:03;;;;;;;1.33;0.60;;;21.20;34.90;;;;;;5094386;28;20494;-76
2022/02/17 02:26:29;;;;;;;0.88;0.60;;;21.20;34.90;;;;;;5093411;28;20850;-76
2022/02/17 02:28:56;;;;;;;1.77;0.88;;;21.20;34.80;;;;;;5092735;28;20447;-76
2022/02/17 02:31:23;;;;;;;1.00;0.63;;;21.20;34.70;;;;;;5093985;28;20390;-76
2022/02/17 02:33:48;;;;;;;0.82;0.60;;;21.20;34.90;;;;;;5094289;28;20387;-75
2022/02/17 02:36:14;;;;;;;1.10;0.70;;;21.20;34.90;;;;;;5093678;28;20409;-75
2022/02/17 02:38:40;;;;;;;1.00;0.67;;;21.20;34.90;;;;;;5093768;28;20934;-73
2022/02/17 02:41:08;;;;;;;1.20;0.70;;;21.20;34.90;;;;;;5093632;28;20385;-76
2022/02/17 02:43:34;;;;;;;0.70;0.60;;;21.20;34.80;;;;;;5092385;28;20424;-76
2022/02/17 02:46:00;;;;;;;1.30;0.60;;;21.20;34.80;;;;;;5092285;28;20405;-75
2022/02/17 02:48:25;;;;;;;1.60;0.70;;;21.20;35.00;;;;;;5092150;28;20739;-76
2022/02/17 02:50:51;;;;;;;0.85;0.60;;;21.20;35.00;;;;;;5093414;28;20381;-75
2022/02/17 02:53:18;;;;;;;1.05;0.57;;;21.20;35.00;;;;;;5094001;28;20763;-76
2022/02/17 02:55:46;;;;;;;1.80;0.63;;;21.10;35.00;;;;;;5093363;28;20374;-76
2022/02/17 02:58:13;;;;;;;1.10;0.60;;;21.10;34.90;;;;;;5093146;28;20481;-77
2022/02/17 03:00:43;;;;;;;1.00;0.70;;;21.10;34.90;;;;;;5092886;28;20375;-77
2022/02/17 03:03:09;;;;;;;1.85;0.60;;;21.10;35.10;;;;;;5091987;28;20390;-77
2022/02/17 03:05:35;;;;;;;0.90;0.70;;;21.10;35.10;;;;;;5093075;28;20915;-76
2022/02/17 03:08:02;;;;;;;1.00;0.60;;;21.10;35.10;;;;;;5093184;28;20418;-76
2022/02/17 03:10:30;;;;;;;2.60;0.60;;;21.20;35.10;;;;;;5091593;28;20406;-77
2022/02/17 03:12:56;;;;;;;1.48;0.70;;;21.20;35.10;;;;;;5095391;28;20472;-77
2022/02/17 03:15:22;;;;;;;1.05;0.60;;;21.20;34.90;;;;;;5091508;28;20443;-76
2022/02/17 03:17:48;;;;;;;1.10;0.68;;;21.30;34.90;;;;;;5093222;28;20383;-77
2022/02/17 03:20:14;;;;;;;0.90;0.60;;;21.30;34.70;;;;;;5092547;28;20389;-76
2022/02/17 03:22:41;;;;;;;1.55;0.70;;;21.30;34.70;;;;;;5092388;28;20441;-70
2022/02/17 03:25:09;;;;;;;1.50;0.60;;;21.40;34.60;;;;;;5092241;28;20471;-70
2022/02/17 03:27:36;;;;;;;0.90;0.52;;;21.40;34.60;;;;;;5092570;28;20390;-76
2022/02/17 03:30:10;;;;;;;0.73;0.50;;;21.40;34.60;;;;;;5092459;28;20386;-74
2022/02/17 03:32:36;;;;;;;0.87;0.60;;;21.40;34.60;;;;;;5092328;28;20416;-77
2022/02/17 03:35:06;;;;;;;0.98;0.60;;;21.40;34.50;;;;;;5092616;28;20386;-73
2022/02/17 03:37:32;;;;;;;1.20;0.60;;;21.40;34.40;;;;;;5091452;28;20453;-76
2022/02/17 03:39:58;;;;;;;0.70;0.50;;;21.40;34.40;;;;;;5092241;28;20484;-76
2022/02/17 03:42:24;;;;;;;1.00;0.70;;;21.40;34.50;;;;;;5092061;28;20481;-77
2022/02/17 03:44:49;;;;;;;0.80;0.60;;;21.50;34.50;;;;;;5091329;28;20398;-75
2022/02/17 03:47:15;;;;;;;0.90;0.60;;;21.40;34.40;;;;;;5092524;28;20765;-75
2022/02/17 03:49:41;;;;;;;1.67;0.60;;;21.50;34.50;;;;;;5092658;28;20965;-76
2022/02/17 03:52:07;;;;;;;0.70;0.50;;;21.50;34.50;;;;;;5092562;28;20746;-77
2022/02/17 03:54:33;;;;;;;1.50;0.65;;;21.50;34.40;;;;;;5090833;28;20393;-76
2022/02/17 03:56:59;;;;;;;0.90;0.60;;;21.50;34.40;;;;;;5092354;28;20421;-77
2022/02/17 03:59:25;;;;;;;2.50;0.70;;;21.50;34.40;;;;;;5092141;28;20492;-77
2022/02/17 04:01:51;;;;;;;0.80;0.50;;;21.50;34.30;;;;;;5092333;28;20441;-76
2022/02/17 04:04:16;;;;;;;1.38;0.60;;;21.50;34.40;;;;;;5093778;28;20490;-76
2022/02/17 04:06:42;;;;;;;1.40;0.70;;;21.50;34.30;;;;;;5090700;28;20387;-77
2022/02/17 04:09:08;;;;;;;0.90;0.50;;;21.50;34.80;;;;;;5090763;28;20397;-75
2022/02/17 04:11:35;;;;;;;1.40;0.50;;;21.60;35.00;;;;;;5092024;28;20457;-76
2022/02/17 04:14:01;;;;;;;1.50;0.80;;;21.60;35.00;;;;;;5089943;28;20404;-75
2022/02/17 04:16:27;;;;;;;4.15;0.70;;;21.70;36.40;;;;;;5091971;28;20762;-74
2022/02/17 04:18:52;;;;;;;4.15;0.80;;;21.70;36.40;;;;;;5092434;28;20390;-76
2022/02/17 04:21:19;;;;;;;7.93;1.03;;;21.80;37.20;;;;;;5092525;28;20848;-76
2022/02/17 04:23:45;;;;;;;4.20;0.70;;;21.90;38.10;;;;;;5091942;28;20417;-77
2022/02/17 04:26:12;;;;;;;3.83;0.60;;;21.90;38.30;;;;;;5092282;28;20382;-76
2022/02/17 04:28:39;;;;;;;5.95;1.05;;;22.00;37.90;;;;;;5091776;28;21310;-78
2022/02/17 04:31:06;;;;;;;3.58;0.80;;;22.00;38.90;;;;;;5093582;28;20737;-76
2022/02/17 04:33:33;;;;;;;5.68;0.70;;;22.00;38.50;;;;;;5092237;28;20884;-76
2022/02/17 04:35:59;;;;;;;2.90;0.70;;;22.00;38.50;;;;;;5090446;28;20386;-76
2022/02/17 04:38:24;;;;;;;2.90;0.88;;;22.10;38.80;;;;;;5089962;28;20398;-76
2022/02/17 04:43:35;;;;;;;4.13;0.70;;;22.00;38.30;;;;;;5092021;28;20416;-70
2022/02/17 04:46:00;;;;;;;5.03;0.90;;;22.10;38.70;;;;;;5091832;28;20386;-76
2022/02/17 04:48:26;;;;;;;4.22;0.80;;;22.10;38.70;;;;;;5091384;28;20466;-76
2022/02/17 04:50:52;;;;;;;5.70;0.80;;;22.10;38.30;;;;;;5091545;28;20389;-75
2022/02/17 04:53:17;;;;;;;3.57;0.80;;;22.10;38.30;;;;;;5091516;28;20394;-78
2022/02/17 04:55:43;;;;;;;3.97;1.00;;;22.00;37.60;;;;;;5091668;28;20386;-77
2022/02/17 04:58:09;;;;;;;3.13;0.73;;;22.00;37.70;;;;;;5090668;28;20490;-78
2022/02/17 05:00:35;;;;;;;3.10;0.63;;;22.10;37.90;;;;;;5089867;28;20378;-77
2022/02/17 05:03:00;;;;;;;5.17;0.83;;;22.00;37.50;;;;;;5091884;28;20451;-77
2022/02/17 05:05:26;;;;;;;4.88;1.00;;;22.00;38.50;;;;;;5091797;28;20425;-75
2022/02/17 05:07:52;;;;;;;4.77;1.00;;;22.10;37.00;;;;;;5090235;28;20378;-76
2022/02/17 05:10:18;;;;;;;8.98;1.00;;;22.00;37.40;;;;;;5091787;28;20387;-77
2022/02/17 05:12:44;;;;;;;8.23;1.10;;;22.10;37.20;;;;;;5091045;28;20469;-77
2022/02/17 05:15:09;;;;;;;10.45;1.33;;;22.00;37.10;;;;;;5091860;28;20386;-76
2022/02/17 05:17:35;;;;;;;6.97;1.00;;;22.00;37.00;;;;;;5091776;28;20475;-76
2022/02/17 05:20:01;;;;;;;6.70;1.20;;;22.00;36.60;;;;;;5091462;28;20382;-76
2022/02/17 05:22:26;;;;;;;6.55;1.05;;;22.00;36.20;;;;;;5091323;28;20394;-77
2022/02/17 05:24:52;;;;;;;8.97;1.10;;;22.00;36.10;;;;;;5092890;28;20394;-78
2022/02/17 05:27:18;;;;;;;7.38;0.88;;;22.00;36.60;;;;;;5095459;28;20397;-78
2022/02/17 05:29:43;;;;;;;6.82;1.33;;;22.00;36.10;;;;;;5095689;28;20389;-71
2022/02/17 05:32:09;;;;;;;8.60;0.97;;;22.00;36.10;;;;;;5097709;28;20462;-78
2022/02/17 05:34:35;;;;;;;6.65;0.95;;;22.00;35.70;;;;;;5107827;28;20384;-78
2022/02/17 05:37:01;;;;;;;4.77;1.10;;;22.00;35.60;;;;;;5098788;28;20743;-78
2022/02/17 05:39:27;;;;;;;3.87;0.90;;;21.90;35.50;;;;;;5094795;28;20460;-77
2022/02/17 05:41:53;;;;;;;5.30;0.95;;;22.00;35.60;;;;;;5095102;28;20870;-78
2022/02/17 05:44:19;;;;;;;6.47;1.08;;;21.90;35.40;;;;;;5094940;28;20457;-76
2022/02/17 05:46:45;;;;;;;4.75;0.70;;;21.90;35.40;;;;;;5076499;28;20425;-77
2022/02/17 05:49:10;;;;;;;6.37;1.20;;;21.90;35.00;;;;;;5094469;28;20394;-73
2022/02/17 05:51:36;;;;;;;3.30;0.90;;;22.00;36.50;;;;;;5075842;28;20390;-73
2022/02/17 05:54:01;;;;;;;3.57;1.10;;;21.90;35.80;;;;;;5076097;28;20435;-73
2022/02/17 05:56:27;;;;;;;2.80;0.85;;;21.90;36.20;;;;;;5075825;28;20398;-73
2022/02/17 05:58:53;;;;;;;2.77;0.97;;;21.90;36.30;;;;;;5094050;28;20390;-78
2022/02/17 06:01:18;;;;;;;3.67;0.90;;;22.00;36.70;;;;;;5076649;28;20783;-77
2022/02/17 06:03:44;;;;;;;3.33;0.85;;;22.00;36.00;;;;;;5076638;28;20449;-73
2022/02/17 06:06:09;;;;;;;5.50;0.80;;;21.90;35.30;;;;;;5094527;28;20465;-75
2022/02/17 06:08:35;;;;;;;3.95;0.85;;;21.90;35.10;;;;;;5094064;28;20386;-77
2022/02/17 06:11:01;;;;;;;2.60;0.90;;;21.90;35.20;;;;;;5076318;28;20389;-76
2022/02/17 06:13:26;;;;;;;4.43;0.88;;;21.90;35.00;;;;;;5076354;28;20439;-77
2022/02/17 06:15:52;;;;;;;4.10;1.00;;;21.80;35.00;;;;;;5094530;28;20439;-77
2022/02/17 06:18:18;;;;;;;2.40;0.87;;;21.90;35.20;;;;;;5076369;28;20841;-78
2022/02/17 06:20:43;;;;;;;2.90;0.93;;;21.80;35.00;;;;;;5094112;28;20378;-77
2022/02/17 06:23:09;;;;;;;5.80;1.37;;;21.80;35.10;;;;;;5094336;28;21008;-77
2022/02/17 06:25:34;;;;;;;3.13;0.90;;;21.80;35.20;;;;;;5094118;28;20749;-78
2022/02/17 06:28:02;;;;;;;2.93;0.70;;;21.80;35.20;;;;;;5094199;28;20937;-77
2022/02/17 06:30:28;;;;;;;5.60;0.80;;;21.80;35.20;;;;;;5093995;28;20478;-75
2022/02/17 06:32:56;;;;;;;2.53;0.80;;;21.80;35.20;;;;;;5093940;28;20486;-78
2022/02/17 06:35:30;;;;;;;5.28;0.80;;;21.80;35.20;;;;;;5093166;28;20410;-73
2022/02/17 06:37:56;;;;;;;4.10;1.30;;;21.80;35.10;;;;;;5093222;28;20398;-76
2022/02/17 06:40:22;;;;;;;4.20;0.77;;;21.80;35.10;;;;;;5093327;28;20411;-76
2022/02/17 06:42:49;;;;;;;3.33;1.00;;;21.80;35.30;;;;;;5093069;28;20414;-77
2022/02/17 06:45:16;;;;;;;4.38;0.80;;;21.80;35.50;;;;;;5093559;28;20378;-77
2022/02/17 06:47:42;;;;;;;3.05;0.80;;;21.80;35.20;;;;;;5093558;28;20386;-76
2022/02/17 06:50:09;;;;;;;2.50;0.80;;;21.80;35.30;;;;;;5075327;28;20386;-76
2022/02/17 06:52:35;;;;;;;3.17;0.82;;;21.80;35.00;;;;;;5074500;28;20423;-76
2022/02/17 06:55:01;;;;;;;2.38;0.80;;;21.80;35.20;;;;;;5075279;28;20942;-76
2022/02/17 06:57:27;;;;;;;3.90;0.93;;;21.80;35.20;;;;;;5093271;28;20386;-75
2022/02/17 06:59:53;;;;;;;2.67;0.80;;;21.80;35.00;;;;;;5075192;28;20386;-77
2022/02/17 07:02:23;;;;;;;2.75;0.70;;;21.80;35.00;;;;;;5075039;28;20390;-77
2022/02/17 07:04:49;;;;;;;1.40;0.60;;;21.80;35.00;;;;;;5092726;28;20394;-76
2022/02/17 07:07:14;;;;;;;2.30;0.75;;;21.80;35.00;;;;;;5093059;28;20397;-76
2022/02/17 07:09:40;;;;;;;1.60;0.60;;;21.80;34.90;;;;;;5093120;28;20386;-77
2022/02/17 07:12:07;;;;;;;2.58;0.70;;;21.80;35.10;;;;;;5093018;28;20378;-76
2022/02/17 07:14:32;;;;;;;1.90;0.80;;;21.80;35.20;;;;;;5074770;28;20390;-77
2022/02/17 07:16:59;;;;;;;2.17;0.60;;;21.80;34.90;;;;;;5092801;28;20378;-74
2022/02/17 07:19:25;;;;;;;1.83;0.90;;;21.80;35.00;;;;;;5092930;28;20389;-77
2022/02/17 07:21:51;;;;;;;1.80;0.65;;;21.80;34.90;;;;;;5092867;28;20390;-78
2022/02/17 07:24:18;;;;;;;1.00;0.50;;;21.80;35.00;;;;;;5074725;28;20417;-77
2022/02/17 07:26:44;;;;;;;0.88;0.50;;;21.70;34.90;;;;;;5092547;28;20846;-67
2022/02/17 07:29:11;;;;;;;1.67;0.80;;;21.70;34.90;;;;;;5092743;28;20405;-76
2022/02/17 07:31:37;;;;;;;1.90;0.50;;;21.70;35.10;;;;;;5092641;28;20930;-77
2022/02/17 07:34:03;;;;;;;1.30;0.60;;;21.70;35.10;;;;;;5074486;28;20480;-77
2022/02/17 07:36:29;;;;;;;1.00;0.60;;;21.70;34.80;;;;;;5092357;28;20394;-75
2022/02/17 07:38:55;;;;;;;0.88;0.55;;;21.70;35.00;;;;;;5090116;28;20402;-77
2022/02/17 07:41:21;;;;;;;0.80;0.45;;;21.70;34.90;;;;;;5092466;28;20374;-76
2022/02/17 07:43:46;;;;;;;0.77;0.50;;;21.80;35.00;;;;;;5092447;28;20414;-77
2022/02/17 07:46:12;;;;;;;0.95;0.70;;;21.70;35.00;;;;;;5092525;28;20469;-77
2022/02/17 07:48:38;;;;;;;1.20;0.70;;;21.80;34.90;;;;;;5091716;28;20382;-76
2022/02/17 07:51:04;;;;;;;1.38;0.60;;;21.70;35.00;;;;;;5092283;28;20390;-76
2022/02/17 07:53:31;;;;;;;1.23;0.60;;;21.80;34.90;;;;;;5092181;28;20382;-77
2022/02/17 07:55:57;;;;;;;1.60;0.60;;;21.80;34.70;;;;;;5092189;28;20382;-77
2022/02/17 07:58:23;;;;;;;1.63;0.60;;;21.80;34.40;;;;;;5092216;28;20394;-76
2022/02/17 08:00:49;;;;;;;1.40;0.50;;;21.80;34.40;;;;;;5091693;28;20823;-77
2022/02/17 08:03:15;;;;;;;1.05;0.50;;;21.90;34.30;;;;;;5092022;28;20933;-76
2022/02/17 08:05:41;;;;;;;1.00;0.63;;;21.90;34.30;;;;;;5092193;28;20889;-77
2022/02/17 08:08:08;;;;;;;1.67;0.52;;;21.90;34.50;;;;;;5091926;28;20383;-77
2022/02/17 08:10:37;;;;;;;1.10;0.60;;;21.90;34.40;;;;;;5091462;28;20370;-76
2022/02/17 08:13:04;;;;;;;0.98;0.60;;;21.90;34.40;;;;;;5091811;28;20405;-75
2022/02/17 08:15:30;;;;;;;1.27;0.65;;;21.90;34.40;;;;;;5092087;28;20881;-77
2022/02/17 08:17:56;;;;;;;1.20;0.60;;;21.90;34.40;;;;;;5073928;28;20394;-76
2022/02/17 08:20:22;;;;;;;1.20;0.70;;;21.90;34.50;;;;;;5091931;28;20393;-76
2022/02/17 08:22:53;;;;;;;0.80;0.50;;;21.80;34.40;;;;;;5091483;28;20433;-77
2022/02/17 08:25:22;;;;;;;1.00;0.50;;;21.80;34.40;;;;;;5091660;28;20397;-76
2022/02/17 08:27:48;;;;;;;0.82;0.50;;;21.80;34.50;;;;;;5091920;28;20439;-78
2022/02/17 08:30:15;;;;;;;1.40;0.70;;;21.80;34.50;;;;;;5091537;28;20466;-76
2022/02/17 08:32:41;;;;;;;1.00;0.50;;;21.80;34.40;;;;;;5073295;28;20892;-76
2022/02/17 08:35:08;;;;;;;0.60;0.40;;;21.90;34.40;;;;;;5091718;28;20398;-77
2022/02/17 08:37:35;;;;;;;0.82;0.47;;;21.90;34.30;;;;;;5091719;28;20846;-77
2022/02/17 08:40:00;;;;;;;0.90;0.50;;;21.90;34.50;;;;;;5091340;28;20409;-77
2022/02/17 08:42:26;;;;;;;0.85;0.57;;;21.90;34.30;;;;;;5073693;28;20862;-67
2022/02/17 08:44:52;;;;;;;0.93;0.50;;;21.80;34.40;;;;;;5091239;28;20485;-76
2022/02/17 08:47:19;;;;;;;1.05;0.60;;;21.90;34.40;;;;;;5091748;28;20719;-76
2022/02/17 08:49:45;;;;;;;1.10;0.50;;;21.90;34.40;;;;;;5073516;28;20874;-72
2022/02/17 08:52:11;;;;;;;0.90;0.52;;;21.90;34.20;;;;;;5088236;28;20405;-75
2022/02/17 08:54:37;;;;;;;1.10;0.60;;;22.00;34.20;;;;;;5091181;28;20734;-73
2022/02/17 08:57:04;;;;;;;1.70;0.60;;;22.00;34.40;;;;;;5091112;28;20386;-75
2022/02/17 08:59:30;;;;;;;2.33;0.60;;;22.00;34.50;;;;;;5074530;28;20386;-76
2022/02/17 09:01:55;;;;;;;2.50;0.73;;;22.00;34.90;;;;;;5095437;28;20401;-76
2022/02/17 09:04:21;;;;;;;2.38;0.90;;;22.10;35.00;;;;;;5077078;28;20418;-71
2022/02/17 09:06:50;;;;;;;2.17;0.60;;;22.10;35.20;;;;;;5094785;28;20737;-76
2022/02/17 09:09:16;;;;;;;3.47;0.70;;;22.10;35.40;;;;;;5095249;28;20386;-74
2022/02/17 09:11:43;;;;;;;3.10;0.70;;;22.10;35.00;;;;;;5083717;28;20403;-77
2022/02/17 09:14:09;;;;;;;1.70;0.50;;;22.10;34.90;;;;;;5063500;28;20424;-67
2022/02/17 09:16:35;;;;;;;1.25;0.50;;;22.10;35.20;;;;;;5036538;28;20766;-68
2022/02/17 09:19:03;;;;;;;2.88;0.60;;;22.00;35.10;;;;;;5054293;28;20397;-67
2022/02/17 09:21:29;;;;;;;2.38;0.50;;;22.00;35.10;;;;;;5036734;28;20524;-67
2022/02/17 09:23:54;;;;;;;3.37;0.67;;;22.00;35.00;;;;;;5036634;28;20519;-68
2022/02/17 09:26:20;;;;;;;2.03;0.50;;;22.00;34.90;;;;;;5036481;28;20400;-68
2022/02/17 09:28:48;;;;;;;2.63;0.67;;;22.00;34.80;;;;;;5054010;28;20394;-67
2022/02/17 09:31:18;;;;;;;3.45;0.60;;;22.00;34.80;;;;;;5054290;28;20417;-77
2022/02/17 09:33:46;;;;;;;1.40;0.80;;;22.00;34.60;;;;;;5054449;28;20824;-69
2022/02/17 09:36:13;;;;;;;2.28;0.50;;;22.00;34.70;;;;;;5054257;28;20391;-67
2022/02/17 09:38:39;;;;;;;2.60;0.60;;;22.00;34.70;;;;;;5056272;28;20439;-73
2022/02/17 09:41:09;;;;;;;2.20;0.90;;;22.10;34.60;;;;;;5073913;28;20790;-74
2022/02/17 09:43:36;;;;;;;1.80;0.60;;;22.00;34.60;;;;;;5074334;28;20880;-76
2022/02/17 09:46:02;;;;;;;1.80;0.60;;;22.10;34.80;;;;;;5074090;28;20399;-67
2022/02/17 09:48:28;;;;;;;1.50;0.60;;;22.20;34.50;;;;;;5074126;28;20732;-66
2022/02/17 09:50:54;;;;;;;2.40;0.80;;;22.30;34.20;;;;;;5073624;28;20399;-66
2022/02/17 09:53:20;;;;;;;1.77;0.63;;;22.40;34.20;;;;;;5073941;28;20376;-66
2022/02/17 09:55:46;;;;;;;2.53;0.60;;;22.50;34.30;;;;;;5073832;28;20403;-66
2022/02/17 09:58:15;;;;;;;2.55;0.60;;;22.50;34.00;;;;;;5073160;28;20471;-66
2022/02/17 10:00:40;;;;;;;1.60;0.77;;;22.50;33.80;;;;;;5073424;28;20399;-66
2022/02/17 10:03:24;;;;;;;3.15;0.70;;;22.50;33.70;;;;;;5073480;28;20415;-66
2022/02/17 10:06:09;;;;;;;1.95;0.60;;;22.50;33.60;;;;;;5073812;28;20394;-66
2022/02/17 10:08:36;;;;;;;0.87;0.47;;;22.50;33.70;;;;;;5073741;28;20395;-67
2022/02/17 10:11:03;;;;;;;2.13;0.52;;;22.50;33.70;;;;;;5073368;28;20438;-75
2022/02/17 10:13:29;;;;;;;2.47;0.50;;;22.50;33.80;;;;;;5073564;28;20415;-66
2022/02/17 10:15:58;;;;;;;3.63;0.68;;;22.40;33.70;;;;;;5073965;28;20426;-75
2022/02/17 10:18:27;;;;;;;3.53;0.60;;;22.50;33.80;;;;;;5085592;28;20402;-76
2022/02/17 10:21:06;;;;;;;1.60;0.60;;;22.50;33.70;;;;;;5092102;28;20411;-74
2022/02/17 10:23:42;;;;;;;3.10;0.50;;;22.50;33.90;;;;;;5092463;28;20769;-75
2022/02/17 10:26:17;;;;;;;1.50;0.50;;;22.50;33.80;;;;;;5088691;28;20473;-74
2022/02/17 10:28:44;;;;;;;1.65;0.50;;;22.60;33.90;;;;;;5092587;28;20394;-75
2022/02/17 10:31:23;;;;;;;3.90;0.60;;;22.50;33.80;;;;;;5091968;28;20458;-74
2022/02/17 10:33:55;;;;;;;2.20;0.70;;;22.50;33.60;;;;;;5092278;28;20745;-75
2022/02/17 10:36:42;;;;;;;2.50;0.55;;;22.50;33.60;;;;;;5092314;28;20476;-70
2022/02/17 10:39:16;;;;;;;0.70;0.40;;;22.50;33.50;;;;;;5088522;28;20807;-74
2022/02/17 10:41:59;;;;;;;2.10;0.60;;;22.60;33.70;;;;;;5092291;28;20404;-76
2022/02/17 10:44:41;;;;;;;1.10;0.47;;;22.50;33.50;;;;;;5089550;28;20413;-75
2022/02/17 10:47:22;;;;;;;0.60;0.30;;;22.50;33.40;;;;;;5089738;28;20754;-75
2022/02/17 10:49:50;;;;;;;2.45;0.40;;;22.50;33.30;;;;;;5090208;28;20418;-66
2022/02/17 10:52:39;;;;;;;1.50;0.40;;;22.50;33.50;;;;;;5092034;28;20469;-73
2022/02/17 10:55:15;;;;;;;0.68;0.32;;;22.40;33.60;;;;;;5089294;28;20426;-76
2022/02/17 10:57:41;;;;;;;1.17;0.40;;;22.50;33.60;;;;;;5092016;28;20378;-76
2022/02/17 11:00:22;;;;;;;1.20;0.40;;;22.50;33.60;;;;;;5091927;28;20398;-75
2022/02/17 11:02:50;;;;;;;0.82;0.50;;;22.50;33.40;;;;;;5088977;28;21090;-66
2022/02/17 11:05:17;;;;;;;0.63;0.40;;;22.50;33.50;;;;;;5090327;28;21046;-66
2022/02/17 11:07:45;;;;;;;0.63;0.40;;;22.50;33.60;;;;;;5091588;28;20378;-72
2022/02/17 11:10:12;;;;;;;2.60;0.50;;;22.50;33.50;;;;;;5091873;28;20413;-75
2022/02/17 11:12:39;;;;;;;2.13;0.40;;;22.50;33.50;;;;;;5091777;28;20773;-76
2022/02/17 11:15:06;;;;;;;2.72;0.47;;;22.50;33.40;;;;;;5088539;28;20758;-76
2022/02/17 11:17:38;;;;;;;2.70;0.50;;;22.50;33.50;;;;;;5091478;28;20807;-75
2022/02/17 11:20:17;;;;;;;1.10;0.40;;;22.50;33.50;;;;;;5091302;28;20723;-75
2022/02/17 11:22:44;;;;;;;1.70;0.50;;;22.50;33.60;;;;;;5090589;28;20404;-75
2022/02/17 11:25:11;;;;;;;1.75;0.40;;;22.40;33.60;;;;;;5091170;28;20477;-75
2022/02/17 11:28:05;;;;;;;1.13;0.52;;;22.50;33.50;;;;;;5091413;28;20386;-76
2022/02/17 11:30:33;;;;;;;0.93;0.50;;;22.50;33.40;;;;;;5089466;28;20393;-75
2022/02/17 11:33:24;;;;;;;1.05;0.40;;;22.50;33.50;;;;;;5089786;28;20398;-75
2022/02/17 11:35:51;;;;;;;1.20;0.30;;;22.50;33.50;;;;;;5089325;28;20401;-76
2022/02/17 11:38:28;;;;;;;0.73;0.30;;;22.50;33.50;;;;;;5090949;28;20378;-75
2022/02/17 11:41:01;;;;;;;0.88;0.30;;;22.50;33.50;;;;;;5089569;28;20464;-75
2022/02/17 11:43:32;;;;;;;1.10;0.30;;;22.50;33.60;;;;;;5088576;28;20402;-76
2022/02/17 11:45:58;;;;;;;1.20;0.32;;;22.50;33.60;;;;;;5090895;28;20386;-75
2022/02/17 11:48:40;;;;;;;0.50;0.20;;;22.50;33.50;;;;;;5089156;28;20386;-75
2022/02/17 11:51:15;;;;;;;0.40;0.30;;;22.50;33.40;;;;;;5086409;28;20441;-75
2022/02/17 11:53:42;;;;;;;0.40;0.20;;;22.50;33.40;;;;;;5090937;28;20388;-72
2022/02/17 11:56:15;;;;;;;1.45;0.30;;;22.50;34.00;;;;;;5089911;28;20390;-74
2022/02/17 11:58:45;;;;;;;0.60;0.30;;;22.50;33.40;;;;;;5090996;28;20386;-74
2022/02/17 12:01:25;;;;;;;0.95;0.30;;;22.50;33.60;;;;;;5088557;28;20913;-73
2022/02/17 12:04:09;;;;;;;0.98;0.30;;;22.50;33.50;;;;;;5105774;28;20418;-73
2022/02/17 12:06:41;;;;;;;0.30;0.30;;;22.50;33.50;;;;;;5090947;28;20385;-73
2022/02/17 12:09:32;;;;;;;0.32;0.17;;;22.50;33.60;;;;;;5090298;28;20385;-73
2022/02/17 12:12:27;;;;;;;0.77;0.30;;;22.50;33.50;;;;;;5090483;28;20438;-73
2022/02/17 12:14:56;;;;;;;0.80;0.30;;;22.60;33.50;;;;;;5085686;28;20390;-72
2022/02/17 12:17:36;;;;;;;0.70;0.20;;;22.60;33.60;;;;;;5090647;28;20862;-72
2022/02/17 12:20:15;;;;;;;0.60;0.40;;;22.50;33.60;;;;;;5087319;28;20378;-73
2022/02/17 12:22:59;;;;;;;1.33;0.30;;;22.60;33.50;;;;;;5088250;28;20503;-73
2022/02/17 12:25:32;;;;;;;0.80;0.22;;;22.70;33.50;;;;;;5121827;27;20394;-73
2022/02/17 12:28:03;;;;;;;0.32;0.28;;;22.60;33.70;;;;;;5088672;28;20757;-74
2022/02/17 12:30:52;;;;;;;0.63;0.30;;;22.60;33.50;;;;;;5091744;28;20456;-73
2022/02/17 12:33:19;;;;;;;0.40;0.30;;;22.70;33.50;;;;;;5091620;28;20461;-72
2022/02/17 12:36:00;;;;;;;0.45;0.30;;;22.70;33.30;;;;;;5093701;28;20965;-73
2022/02/17 12:38:31;;;;;;;0.55;0.32;;;22.70;33.30;;;;;;5094403;28;20386;-73
2022/02/17 12:40:57;;;;;;;0.60;0.30;;;22.70;33.30;;;;;;5095329;28;20401;-68
2022/02/17 12:43:28;;;;;;;0.50;0.20;;;22.70;33.40;;;;;;5094313;28;20394;-66
2022/02/17 12:45:55;;;;;;;0.40;0.20;;;22.70;33.30;;;;;;5094390;28;20900;-69
2022/02/17 12:48:21;;;;;;;0.70;0.30;;;22.80;33.30;;;;;;5095449;28;20385;-68
2022/02/17 12:50:46;;;;;;;0.80;0.30;;;22.80;33.30;;;;;;5095375;28;20454;-67
2022/02/17 12:53:12;;;;;;;0.75;0.38;;;22.80;33.30;;;;;;5094028;28;21163;-73